createdAt,value
2023-01-29T00:31:19.057Z,34.10
2023-01-29T00:33:46.301Z,38.03
2023-01-29T00:36:14.768Z,36.50
2023-01-29T00:38:41.512Z,35.75
2023-01-29T00:41:34.252Z,34.55
2023-01-29T00:44:39.891Z,34.55
2023-01-29T00:47:25.840Z,34.55
2023-01-29T00:49:52.433Z,35.90
2023-01-29T00:52:24.751Z,33.90
2023-01-29T00:55:25.465Z,35.17
2023-01-29T01:47:16.892Z,32.92
2023-01-29T01:49:44.889Z,33.60
2023-01-29T01:52:13.654Z,35.72
2023-01-29T01:54:40.358Z,32.72
2023-01-29T01:57:15.999Z,31.70
2023-01-29T02:00:43.793Z,38.10
2023-01-29T02:06:49.043Z,32.00
2023-01-29T02:09:32.375Z,33.45
2023-01-29T02:32:29.373Z,34.15
2023-01-29T02:35:28.856Z,33.40
2023-01-29T02:38:07.974Z,33.05
2023-01-29T02:41:11.884Z,34.00
2023-01-29T03:00:21.123Z,29.90
2023-01-29T03:29:42.267Z,32.65
2023-01-29T03:32:10.444Z,31.95
2023-01-29T03:34:49.304Z,34.20
2023-01-29T03:37:46.345Z,30.25
2023-01-29T03:40:38.457Z,32.58
2023-01-29T04:17:53.154Z,25.12
2023-01-29T04:20:20.899Z,24.70
2023-01-29T04:22:51.493Z,24.17
2023-01-29T04:25:29.472Z,24.40
2023-01-29T04:45:35.334Z,24.10
2023-01-29T04:48:19.089Z,22.40
2023-01-29T04:50:55.220Z,25.10
2023-01-29T04:53:34.921Z,23.52
2023-01-29T04:56:08.981Z,23.83
2023-01-29T05:23:35.791Z,22.30
2023-01-29T05:26:02.402Z,22.92
2023-01-29T05:45:22.537Z,26.80
2023-01-29T05:47:49.176Z,25.23
2023-01-29T05:50:16.721Z,25.83
2023-01-29T05:52:43.451Z,24.45
2023-01-29T05:55:10.513Z,23.25
2023-01-29T06:20:33.175Z,23.62
2023-01-29T06:22:59.952Z,24.35
2023-01-29T06:25:26.510Z,26.40
2023-01-29T06:27:53.083Z,28.05
2023-01-29T06:30:19.964Z,26.85
2023-01-29T06:33:08.420Z,22.00
2023-01-29T06:35:34.998Z,22.37
2023-01-29T06:38:01.764Z,21.23
2023-01-29T06:40:28.329Z,24.02
2023-01-29T06:44:08.312Z,23.12
2023-01-29T06:46:59.026Z,20.83
2023-01-29T06:49:25.626Z,20.25
2023-01-29T06:51:52.942Z,21.02
2023-01-29T06:54:19.486Z,23.70
2023-01-29T06:56:46.049Z,21.75
2023-01-29T06:59:13.054Z,21.75
2023-01-29T07:01:44.321Z,20.15
2023-01-29T07:04:11.534Z,19.77
2023-01-29T07:06:38.277Z,20.55
2023-01-29T07:09:05.217Z,20.20
2023-01-29T07:11:38.336Z,20.25
2023-01-29T07:16:31.989Z,18.80
2023-01-29T07:18:58.630Z,19.12
2023-01-29T07:21:25.587Z,22.37
2023-01-29T07:23:52.187Z,19.15
2023-01-29T07:26:19.039Z,19.70
2023-01-29T07:28:45.594Z,20.02
2023-01-29T07:31:14.655Z,20.20
2023-01-29T07:33:44.290Z,18.15
2023-01-29T07:36:11.670Z,18.45
2023-01-29T07:38:38.384Z,18.85
2023-01-29T07:41:05.078Z,17.80
2023-01-29T07:43:31.773Z,18.35
2023-01-29T07:46:03.222Z,18.85
2023-01-29T07:48:51.830Z,18.67
2023-01-29T07:51:18.599Z,20.83
2023-01-29T07:53:45.191Z,16.48
2023-01-29T07:56:12.166Z,16.67
2023-01-29T07:58:38.778Z,18.48
2023-01-29T08:01:14.594Z,19.42
2023-01-29T08:03:41.279Z,17.92
2023-01-29T08:06:08.173Z,16.40
2023-01-29T08:08:34.854Z,18.08
2023-01-29T08:11:05.670Z,17.77
2023-01-29T08:13:32.691Z,16.80
2023-01-29T08:16:01.156Z,15.90
2023-01-29T08:18:28.062Z,17.37
2023-01-29T08:20:59.425Z,16.83
2023-01-29T08:23:26.037Z,16.17
2023-01-29T08:25:52.672Z,15.60
2023-01-29T08:28:19.396Z,15.63
2023-01-29T08:30:46.033Z,16.73
2023-01-29T08:33:12.712Z,18.77
2023-01-29T08:35:41.190Z,18.45
2023-01-29T08:38:08.074Z,14.90
2023-01-29T08:40:37.124Z,15.18
2023-01-29T08:43:09.132Z,19.48
2023-01-29T08:45:42.175Z,15.82
2023-01-29T08:48:09.445Z,15.00
2023-01-29T08:50:36.171Z,16.52
2023-01-29T08:53:07.821Z,17.60
2023-01-29T08:55:39.058Z,17.27
2023-01-29T08:58:07.084Z,15.02
2023-01-29T09:00:34.715Z,15.02
2023-01-29T09:03:01.397Z,13.95
2023-01-29T09:05:28.314Z,13.48
2023-01-29T09:07:57.071Z,14.90
2023-01-29T09:10:23.673Z,16.12
2023-01-29T09:12:50.219Z,16.42
2023-01-29T09:15:17.027Z,14.73
2023-01-29T09:17:43.939Z,13.38
2023-01-29T09:20:10.929Z,13.35
2023-01-29T09:22:37.548Z,13.70
2023-01-29T09:25:04.520Z,14.30
2023-01-29T09:27:31.063Z,20.05
2023-01-29T09:29:57.699Z,22.17
2023-01-29T09:32:51.984Z,41.08
2023-01-29T09:35:11.026Z,16.48
2023-01-29T09:37:37.602Z,17.98
2023-01-29T09:40:04.590Z,27.00
2023-01-29T09:42:55.605Z,16.05
2023-01-29T09:45:25.177Z,35.35
2023-01-29T09:47:53.216Z,15.48
2023-01-29T09:50:38.370Z,17.08
2023-01-29T09:53:15.102Z,14.95
2023-01-29T09:55:46.466Z,15.80
2023-01-29T09:58:30.693Z,14.93
2023-01-29T10:01:15.611Z,14.15
2023-01-29T10:03:44.973Z,14.20
2023-01-29T10:06:44.045Z,12.23
2023-01-29T10:09:38.634Z,14.05
2023-01-29T10:12:33.113Z,14.05
2023-01-29T10:15:31.991Z,12.93
2023-01-29T10:18:23.322Z,12.77
2023-01-29T10:21:02.913Z,11.32
2023-01-29T10:23:35.061Z,12.55
2023-01-29T10:26:01.718Z,16.37
2023-01-29T10:28:39.692Z,13.27
2023-01-29T10:31:25.172Z,13.43
2023-01-29T10:34:01.888Z,12.60
2023-01-29T10:36:35.448Z,15.13
2023-01-29T10:41:34.320Z,15.10
2023-01-29T10:44:35.076Z,12.98
2023-01-29T10:47:10.745Z,11.15
2023-01-29T10:49:37.246Z,12.25
2023-01-29T10:52:06.814Z,13.23
2023-01-29T10:54:38.861Z,12.93
2023-01-29T10:57:08.287Z,12.68
2023-01-29T10:59:53.664Z,12.57
2023-01-29T11:02:22.661Z,13.25
2023-01-29T11:04:49.384Z,13.32
2023-01-29T11:07:18.592Z,14.35
2023-01-29T13:00:43.607Z,9.57
2023-01-29T13:03:34.813Z,10.32
2023-01-29T13:06:12.196Z,10.10
2023-01-29T13:08:45.541Z,9.00
2023-01-29T13:11:40.399Z,8.43
2023-01-29T13:14:31.693Z,10.23
2023-01-29T13:17:14.684Z,9.55
2023-01-29T13:19:45.563Z,9.63
2023-01-29T13:38:45.674Z,11.10
2023-01-29T13:41:13.644Z,9.93
2023-01-29T13:43:48.441Z,17.45
2023-01-29T13:46:21.345Z,10.70
2023-01-29T13:51:33.955Z,12.35
2023-01-29T13:56:44.639Z,12.18
2023-01-29T13:59:45.029Z,13.15
2023-01-29T14:02:24.148Z,12.48
2023-01-29T14:04:51.753Z,11.38
2023-01-29T14:07:50.497Z,12.35
2023-01-29T14:10:18.943Z,11.90
2023-01-29T14:12:50.410Z,11.10
2023-01-29T14:15:26.083Z,12.95
2023-01-29T14:18:06.359Z,17.40
2023-01-29T14:21:01.758Z,15.98
2023-01-29T14:23:46.659Z,24.98
2023-01-29T14:26:21.385Z,45.75
2023-01-29T14:29:00.627Z,37.70
2023-01-29T14:31:53.009Z,17.00
2023-01-29T14:34:36.162Z,13.05
2023-01-29T14:37:21.208Z,13.25
2023-01-29T15:25:47.196Z,19.33
2023-01-29T15:28:13.806Z,28.65
2023-01-29T15:30:43.170Z,30.48
2023-01-29T15:33:11.640Z,17.35
2023-01-29T15:35:40.686Z,18.00
2023-01-29T15:38:16.329Z,17.08
2023-01-29T15:40:56.523Z,16.37
2023-01-29T15:43:31.366Z,16.27
2023-01-29T15:46:05.716Z,18.98
2023-01-29T15:48:46.389Z,18.37
2023-01-29T15:51:35.161Z,17.45
2023-01-29T15:54:10.811Z,25.48
2023-01-29T15:56:43.355Z,41.00
2023-01-29T15:59:18.021Z,53.42
2023-01-29T16:01:49.944Z,51.60
2023-01-29T16:04:31.439Z,33.80
2023-01-29T16:07:00.621Z,28.42
2023-01-29T16:09:28.987Z,25.45
2023-01-29T16:11:59.360Z,20.50
2023-01-29T16:14:28.484Z,18.40
2023-01-29T16:16:55.375Z,18.15
2023-01-29T16:19:27.877Z,17.77
2023-01-29T16:22:01.741Z,20.77
2023-01-29T16:24:31.154Z,21.40
2023-01-29T16:27:13.084Z,21.45
2023-01-29T16:29:39.849Z,25.10
2023-01-29T16:32:07.019Z,22.23
2023-01-29T16:34:48.382Z,21.00
2023-01-29T16:37:26.523Z,26.80
2023-01-29T16:39:53.156Z,27.48
2023-01-29T16:42:31.258Z,27.77
2023-01-29T16:45:04.213Z,21.55
2023-01-29T16:47:36.919Z,18.67
2023-01-29T16:50:18.337Z,17.33
2023-01-29T16:53:01.138Z,16.30
2023-01-29T16:55:40.931Z,18.00
2023-01-29T16:58:17.878Z,18.90
2023-01-29T17:00:51.258Z,20.55
2023-01-29T17:03:19.208Z,20.98
2023-01-29T17:05:47.087Z,20.02
2023-01-29T17:08:43.537Z,20.30
2023-01-29T17:11:12.984Z,19.25
2023-01-29T17:13:43.035Z,19.50
2023-01-29T17:16:15.911Z,17.87
2023-01-29T17:18:42.874Z,18.15
2023-01-29T17:21:09.437Z,20.17
2023-01-29T17:23:36.084Z,18.10
2023-01-29T17:26:03.163Z,19.25
2023-01-29T17:28:30.740Z,21.70
2023-01-29T17:31:06.353Z,19.02
2023-01-29T17:33:34.579Z,55.67
2023-01-29T17:36:01.137Z,23.00
2023-01-29T17:38:27.736Z,30.45
2023-01-29T17:41:04.291Z,20.75
2023-01-29T17:43:30.862Z,20.42
2023-01-29T17:45:57.607Z,25.42
2023-01-29T17:48:26.542Z,19.60
2023-01-29T17:50:59.694Z,23.60
2023-01-29T17:56:03.066Z,20.58
2023-01-29T17:58:29.698Z,18.23
2023-01-29T18:00:56.350Z,20.00
2023-01-29T18:03:23.229Z,20.73
2023-01-29T18:05:50.466Z,22.87
2023-01-29T18:08:26.494Z,24.12
2023-01-29T18:10:53.118Z,24.08
2023-01-29T18:13:19.629Z,21.60
2023-01-29T18:15:46.174Z,22.58
2023-01-29T18:18:14.686Z,22.33
2023-01-29T18:20:41.686Z,20.23
2023-01-29T18:23:08.573Z,26.85
2023-01-29T18:25:35.354Z,25.48
2023-01-29T18:28:02.682Z,23.15
2023-01-29T18:30:30.170Z,21.98
2023-01-29T18:32:57.577Z,28.15
2023-01-29T18:35:25.222Z,26.65
2023-01-29T18:37:52.106Z,30.90
2023-01-29T18:40:18.978Z,34.97
2023-01-29T18:42:46.191Z,50.63
2023-01-29T18:45:13.470Z,33.72
2023-01-29T18:47:40.620Z,54.08
2023-01-29T18:50:08.294Z,23.73
2023-01-29T18:52:34.873Z,22.95
2023-01-29T18:55:01.455Z,21.50
2023-01-29T18:58:28.525Z,25.77
2023-01-29T19:00:15.623Z,22.55
2023-01-29T19:02:43.092Z,20.73
2023-01-29T19:10:20.159Z,24.98
2023-01-29T19:12:47.759Z,21.35
2023-01-29T19:15:14.785Z,20.98
2023-01-29T19:17:41.615Z,21.27
2023-01-29T19:20:09.642Z,23.00
2023-01-29T19:22:36.383Z,25.25
2023-01-29T19:25:02.990Z,23.80
2023-01-29T19:27:30.581Z,20.95
2023-01-29T20:22:11.812Z,21.85
2023-01-29T20:24:42.767Z,23.12
2023-01-29T20:27:10.842Z,21.25
2023-01-29T20:29:39.036Z,25.10
2023-01-29T20:32:08.050Z,20.60
2023-01-29T20:34:38.052Z,20.52
2023-01-29T20:37:07.135Z,23.15
2023-01-29T20:39:33.715Z,23.40
2023-01-29T20:42:00.409Z,23.62
2023-01-29T20:44:26.982Z,22.95
2023-01-29T20:46:53.758Z,25.67
2023-01-29T20:49:21.769Z,25.02
2023-01-29T20:51:48.304Z,25.40
2023-01-29T20:54:15.277Z,22.70
2023-01-29T20:56:43.558Z,21.48
2023-01-29T20:59:11.593Z,22.17
2023-01-29T21:01:38.265Z,21.30
2023-01-29T21:04:04.981Z,22.67
2023-01-29T21:06:31.799Z,23.20
2023-01-29T21:08:58.380Z,21.67
2023-01-29T21:11:24.996Z,22.15
2023-01-29T21:13:57.460Z,22.95
2023-01-29T21:16:26.947Z,22.45
2023-01-29T21:19:00.856Z,21.65
2023-01-29T21:21:27.634Z,23.45
2023-01-29T21:23:54.677Z,21.02
2023-01-29T21:26:21.604Z,23.00
2023-01-29T21:28:48.453Z,23.83
2023-01-29T21:31:16.874Z,20.42
2023-01-29T21:33:43.862Z,23.40
2023-01-29T21:36:11.278Z,22.87
2023-01-29T21:38:38.737Z,23.20
2023-01-29T21:41:15.481Z,23.70
2023-01-29T21:43:42.045Z,23.38
2023-01-29T21:46:12.083Z,24.75
2023-01-29T21:48:40.265Z,24.25
2023-01-29T21:51:07.481Z,25.23
2023-01-29T21:53:34.368Z,24.55
2023-01-29T21:56:05.720Z,24.08
2023-01-29T21:58:32.416Z,24.70
2023-01-29T22:01:36.128Z,23.55
2023-01-29T22:03:47.773Z,23.00
2023-01-29T22:06:15.122Z,22.50
2023-01-29T22:08:41.713Z,23.23
2023-01-29T22:11:09.298Z,25.83
2023-01-29T22:13:36.055Z,26.98
2023-01-29T22:16:02.681Z,24.80
2023-01-29T22:18:29.232Z,24.85
2023-01-29T22:20:57.491Z,26.08
2023-01-29T22:23:24.723Z,24.90
2023-01-29T22:25:51.262Z,26.70
2023-01-29T22:28:18.657Z,25.23
2023-01-29T22:30:45.346Z,26.00
2023-01-29T22:33:12.538Z,24.85
2023-01-29T22:35:39.165Z,23.90
2023-01-29T22:38:05.809Z,26.40
2023-01-29T22:40:32.375Z,26.10
2023-01-29T22:42:58.967Z,26.35
2023-01-29T22:45:25.701Z,25.98
2023-01-29T23:21:06.997Z,33.63
2023-01-29T23:23:35.183Z,32.70
2023-01-29T23:26:22.134Z,30.83
2023-01-29T23:28:50.051Z,35.60
